Miniplon — FIDV — position and weather

sailwx.info

Track history (hours):
 
Tides and Currents Weather Stations Pressure Air Temp Water Temp Dewpoint Dewpoint Depression Visibility Wind Speed Wind Dir Waves Ship Positions

Miniplon

Last reported at 2016-Jul-28 15:21 UTC. Time now 2016-Jul-30 15:01 UTC.
Position N 46°30' W 001°47'.

Type: SAR. MMSI: 228024600.

Date/timePositionNaut miles runAvg speedWind from/ knotsBaromVisibWave heightAir tempDewpointWater temp
2016-Jul-28 15:21N 46°30' W 001°47'0 0.2
2016-Jul-28 14:31N 46°30' W 001°47'5 5.3
2016-Jul-28 13:33N 46°33' W 001°54'14 0.5
2016-Jul-27 06:33N 46°45' W 002°04'9 8.8
2016-Jul-27 05:33N 46°38' W 001°58'9 8.7
2016-Jul-27 04:33N 46°30' W 001°51'  
2016-Jul-22 14:31N 46°30' W 001°47'5 5.0
2016-Jul-22 13:33N 46°31' W 001°54'28 1.4
2016-Jul-21 18:21N 46°51' W 002°22'911.0
2016-Jul-21 17:30N 47°00' W 002°21'2 1.1
2016-Jul-21 15:32N 47°02' W 002°19'16 0.5
2016-Jul-20 06:24N 46°47' W 002°09'0 0.3
2016-Jul-20 05:25N 46°47' W 002°09'8 4.3
2016-Jul-20 03:32N 46°44' W 002°20'17 8.5
2016-Jul-20 01:33N 46°34' W 001°59'10 8.8
2016-Jul-20 00:26N 46°29' W 001°47'  
Track history (hours):
 
Tides and Currents Weather Stations Pressure Air Temp Water Temp Dewpoint Dewpoint Depression Visibility Wind Speed Wind Dir Waves Ship Positions

Miniplon

Last reported at 2016-Jul-28 15:21 UTC. Time now 2016-Jul-30 15:01 UTC.
Position N 46°30' W 001°47'.

Type: SAR. MMSI: 228024600.

Date/timePositionNaut miles runAvg speedWind from/ knotsBaromVisibWave heightAir tempDewpointWater temp
2016-Jul-28 15:21N 46°30' W 001°47'0 0.2
2016-Jul-28 14:31N 46°30' W 001°47'5 5.3
2016-Jul-28 13:33N 46°33' W 001°54'14 0.5
2016-Jul-27 06:33N 46°45' W 002°04'9 8.8
2016-Jul-27 05:33N 46°38' W 001°58'9 8.7
2016-Jul-27 04:33N 46°30' W 001°51'  
2016-Jul-22 14:31N 46°30' W 001°47'5 5.0
2016-Jul-22 13:33N 46°31' W 001°54'28 1.4
2016-Jul-21 18:21N 46°51' W 002°22'911.0
2016-Jul-21 17:30N 47°00' W 002°21'2 1.1
2016-Jul-21 15:32N 47°02' W 002°19'16 0.5
2016-Jul-20 06:24N 46°47' W 002°09'0 0.3
2016-Jul-20 05:25N 46°47' W 002°09'8 4.3
2016-Jul-20 03:32N 46°44' W 002°20'17 8.5
2016-Jul-20 01:33N 46°34' W 001°59'10 8.8
2016-Jul-20 00:26N 46°29' W 001°47'  

Dump ship's entire track history